createdAt,value
2023-05-06T00:00:05.550Z,999.60
2023-05-06T00:01:04.905Z,999.53
2023-05-06T00:02:05.495Z,999.57
2023-05-06T00:03:04.971Z,999.51
2023-05-06T00:04:05.005Z,999.58
2023-05-06T00:05:04.936Z,999.51
2023-05-06T00:06:04.900Z,999.53
2023-05-06T00:07:04.836Z,999.51
2023-05-06T00:08:05.588Z,999.53
2023-05-06T00:09:04.874Z,999.53
2023-05-06T00:10:04.834Z,999.51
2023-05-06T00:11:04.833Z,999.48
2023-05-06T00:12:04.821Z,999.59
2023-05-06T00:13:04.821Z,999.57
2023-05-06T00:14:04.767Z,999.59
2023-05-06T00:15:05.551Z,999.51
2023-05-06T00:16:04.865Z,999.56
2023-05-06T00:17:04.782Z,999.57
2023-05-06T00:18:04.808Z,999.52
2023-05-06T00:19:04.733Z,999.55
2023-05-06T00:20:04.751Z,999.53
2023-05-06T00:21:04.770Z,999.53
2023-05-06T00:22:05.366Z,999.49
2023-05-06T00:23:04.751Z,999.49
2023-05-06T00:24:04.696Z,999.49
2023-05-06T00:25:04.716Z,999.57
2023-05-06T00:26:04.721Z,999.51
2023-05-06T00:27:04.700Z,999.54
2023-05-06T00:28:04.691Z,999.58
2023-05-06T00:29:04.662Z,999.50
2023-05-06T00:30:04.669Z,999.53
2023-05-06T00:31:04.658Z,999.52
2023-05-06T00:32:04.787Z,999.51
2023-05-06T00:33:04.702Z,999.56
2023-05-06T00:34:04.637Z,999.52
2023-05-06T00:35:04.654Z,999.60
2023-05-06T00:36:04.608Z,999.59
2023-05-06T00:37:04.634Z,999.67
2023-05-06T00:38:04.603Z,999.69
2023-05-06T00:39:05.374Z,999.75
2023-05-06T00:40:04.656Z,999.72
2023-05-06T00:41:04.569Z,999.74
2023-05-06T00:42:04.584Z,999.74
2023-05-06T00:43:04.605Z,999.71
2023-05-06T00:44:04.614Z,999.70
2023-05-06T00:45:04.544Z,999.72
2023-05-06T00:46:05.576Z,999.73
2023-05-06T00:47:04.530Z,999.77
2023-05-06T00:48:04.650Z,999.73
2023-05-06T00:49:04.512Z,999.73
2023-05-06T00:50:04.554Z,999.67
2023-05-06T00:51:04.998Z,999.75
2023-05-06T00:52:04.494Z,999.63
2023-05-06T00:53:04.507Z,999.62
2023-05-06T00:54:04.479Z,999.60
2023-05-06T00:55:04.468Z,999.58
2023-05-06T00:56:04.496Z,999.57
2023-05-06T00:57:04.439Z,999.59
2023-05-06T00:58:04.463Z,999.56
2023-05-06T00:59:04.446Z,999.54
2023-05-06T01:00:05.441Z,999.53
2023-05-06T01:01:06.923Z,999.51
2023-05-06T01:02:05.327Z,999.56
2023-05-06T01:03:08.828Z,999.52
2023-05-06T01:04:07.826Z,999.52
2023-05-06T01:05:05.381Z,999.45
2023-05-06T01:06:08.433Z,999.40
2023-05-06T01:07:05.399Z,999.42
2023-05-06T01:08:04.380Z,999.42
2023-05-06T01:09:04.377Z,999.48
2023-05-06T01:10:04.374Z,999.41
2023-05-06T01:11:04.364Z,999.40
2023-05-06T01:12:04.379Z,999.40
2023-05-06T01:13:04.396Z,999.36
2023-05-06T01:14:04.314Z,999.41
2023-05-06T01:15:04.351Z,999.42
2023-05-06T01:16:04.330Z,999.45
2023-05-06T01:17:04.374Z,999.37
2023-05-06T01:18:04.355Z,999.36
2023-05-06T01:19:04.351Z,999.38
2023-05-06T01:20:04.277Z,999.39
2023-05-06T01:21:04.277Z,999.46
2023-05-06T01:22:04.277Z,999.45
2023-05-06T01:23:04.251Z,999.46
2023-05-06T01:24:04.239Z,999.49
2023-05-06T01:25:04.254Z,999.52
2023-05-06T01:26:04.256Z,999.58
2023-05-06T01:27:05.124Z,999.59
2023-05-06T01:28:04.235Z,999.56
2023-05-06T01:29:04.211Z,999.61
2023-05-06T01:30:04.204Z,999.55
2023-05-06T01:31:04.240Z,999.65
2023-05-06T01:32:04.175Z,999.64
2023-05-06T01:33:04.228Z,999.63
2023-05-06T01:34:04.169Z,999.62
2023-05-06T01:35:04.211Z,999.66
2023-05-06T01:36:04.174Z,999.69
2023-05-06T01:37:04.147Z,999.68
2023-05-06T01:38:04.149Z,999.73
2023-05-06T01:39:04.127Z,999.64
2023-05-06T01:40:04.128Z,999.67
2023-05-06T01:41:04.142Z,999.61
2023-05-06T01:42:04.162Z,999.62
2023-05-06T01:43:04.106Z,999.66
2023-05-06T01:44:04.082Z,999.62
2023-05-06T01:45:04.139Z,999.66
2023-05-06T01:46:04.115Z,999.66
2023-05-06T01:47:04.090Z,999.64
2023-05-06T01:48:04.124Z,999.65
2023-05-06T01:49:04.048Z,999.64
2023-05-06T01:50:04.031Z,999.63
2023-05-06T01:51:04.130Z,999.64
2023-05-06T01:52:04.079Z,999.61
2023-05-06T01:53:04.045Z,999.69
2023-05-06T01:54:03.998Z,999.62
2023-05-06T01:55:04.022Z,999.65
2023-05-06T01:56:04.002Z,999.70
2023-05-06T01:57:04.035Z,999.70
2023-05-06T01:58:04.002Z,999.68
2023-05-06T01:59:04.532Z,999.69
2023-05-06T02:00:04.002Z,999.66
2023-05-06T02:01:03.970Z,999.69
2023-05-06T02:02:04.076Z,999.65
2023-05-06T02:03:04.057Z,999.70
2023-05-06T02:04:04.147Z,999.66
2023-05-06T02:05:03.956Z,999.66
2023-05-06T02:06:03.945Z,999.66
2023-05-06T02:07:03.971Z,999.65
2023-05-06T02:08:03.924Z,999.61
2023-05-06T02:09:03.908Z,999.60
2023-05-06T02:10:04.880Z,999.56
2023-05-06T02:11:03.904Z,999.61
2023-05-06T02:12:03.888Z,999.54
2023-05-06T02:13:03.966Z,999.57
2023-05-06T02:14:03.885Z,999.57
2023-05-06T02:15:03.892Z,999.55
2023-05-06T02:16:03.870Z,999.56
2023-05-06T02:17:03.853Z,999.56
2023-05-06T02:18:03.889Z,999.56
2023-05-06T02:19:03.823Z,999.53
2023-05-06T02:20:04.404Z,999.55
2023-05-06T02:21:03.826Z,999.54
2023-05-06T02:22:03.805Z,999.52
2023-05-06T02:23:03.859Z,999.56
2023-05-06T02:24:03.816Z,999.53
2023-05-06T02:25:03.802Z,999.48
2023-05-06T02:26:03.783Z,999.55
2023-05-06T02:27:03.771Z,999.55
2023-05-06T02:28:03.774Z,999.56
2023-05-06T02:29:03.779Z,999.54
2023-05-06T02:30:03.751Z,999.52
2023-05-06T02:31:03.760Z,999.55
2023-05-06T02:32:03.730Z,999.56
2023-05-06T02:33:03.818Z,999.58
2023-05-06T02:34:03.738Z,999.68
2023-05-06T02:35:03.716Z,999.62
2023-05-06T02:36:03.736Z,999.65
2023-05-06T02:37:03.716Z,999.63
2023-05-06T02:38:04.489Z,999.62
2023-05-06T02:39:03.802Z,999.57
2023-05-06T02:40:03.719Z,999.59
2023-05-06T02:41:03.696Z,999.61
2023-05-06T02:42:03.663Z,999.66
2023-05-06T02:43:03.723Z,999.63
2023-05-06T02:44:03.660Z,999.57
2023-05-06T02:45:04.388Z,999.55
2023-05-06T02:46:04.562Z,999.61
2023-05-06T02:47:03.629Z,999.58
2023-05-06T02:48:03.672Z,999.56
2023-05-06T02:49:03.640Z,999.54
2023-05-06T02:50:03.605Z,999.57
2023-05-06T02:51:03.619Z,999.55
2023-05-06T02:52:03.580Z,999.59
2023-05-06T02:53:03.600Z,999.55
2023-05-06T02:54:03.585Z,999.62
2023-05-06T02:55:03.692Z,999.61
2023-05-06T02:56:03.549Z,999.61
2023-05-06T02:57:03.702Z,999.64
2023-05-06T02:58:03.559Z,999.60
2023-05-06T02:59:03.540Z,999.65
2023-05-06T03:00:03.549Z,999.63
2023-05-06T03:01:03.552Z,999.58
2023-05-06T03:02:03.512Z,999.62
2023-05-06T03:03:03.569Z,999.59
2023-05-06T03:04:03.517Z,999.54
2023-05-06T03:05:03.500Z,999.57
2023-05-06T03:06:04.044Z,999.55
2023-05-06T03:07:03.475Z,999.57
2023-05-06T03:08:03.506Z,999.56
2023-05-06T03:09:03.454Z,999.52
2023-05-06T03:10:03.444Z,999.54
2023-05-06T03:11:03.456Z,999.49
2023-05-06T03:12:03.433Z,999.55
2023-05-06T03:13:03.574Z,999.53
2023-05-06T03:14:03.422Z,999.58
2023-05-06T03:15:03.434Z,999.61
2023-05-06T03:16:03.426Z,999.64
2023-05-06T03:17:04.913Z,999.64
2023-05-06T03:18:03.495Z,999.62
2023-05-06T03:19:03.421Z,999.64
2023-05-06T03:20:03.397Z,999.63
2023-05-06T03:21:03.449Z,999.70
2023-05-06T03:22:03.368Z,999.69
2023-05-06T03:23:03.368Z,999.67
2023-05-06T03:24:03.379Z,999.69
2023-05-06T03:25:03.385Z,999.66
2023-05-06T03:26:03.346Z,999.71
2023-05-06T03:27:03.334Z,999.74
2023-05-06T03:28:03.323Z,999.70
2023-05-06T03:29:03.303Z,999.69
2023-05-06T03:30:03.324Z,999.72
2023-05-06T03:31:03.361Z,999.71
2023-05-06T03:32:03.308Z,999.74
2023-05-06T03:33:03.350Z,999.67
2023-05-06T03:34:03.898Z,999.70
2023-05-06T03:35:03.288Z,999.69
2023-05-06T03:36:03.299Z,999.75
2023-05-06T03:37:03.278Z,999.62
2023-05-06T03:38:03.228Z,999.71
2023-05-06T03:39:03.241Z,999.69
2023-05-06T03:40:03.223Z,999.64
2023-05-06T03:41:03.909Z,999.63
2023-05-06T03:42:03.236Z,999.66
2023-05-06T03:43:03.928Z,999.65
2023-05-06T03:44:03.915Z,999.70
2023-05-06T03:45:03.180Z,999.66
2023-05-06T03:46:03.233Z,999.67
2023-05-06T03:47:03.168Z,999.73
2023-05-06T04:03:01.904Z,1000.16
2023-05-06T04:04:01.819Z,1000.13
2023-05-06T04:05:03.433Z,1000.13
2023-05-06T04:06:02.794Z,1000.10
2023-05-06T04:07:03.296Z,1000.14
2023-05-06T04:08:02.791Z,1000.16
2023-05-06T04:09:02.777Z,1000.03
2023-05-06T04:10:02.835Z,1000.10
2023-05-06T04:11:02.757Z,1000.04
2023-05-06T04:12:02.772Z,1000.08
2023-05-06T04:13:02.826Z,1000.03
2023-05-06T04:14:02.727Z,1000.08
2023-05-06T04:15:02.745Z,1000.11
2023-05-06T04:16:02.893Z,1000.07
2023-05-06T04:17:02.755Z,1000.07
2023-05-06T04:18:02.742Z,1000.08
2023-05-06T04:19:05.748Z,1000.02
2023-05-06T04:20:02.713Z,1000.02
2023-05-06T04:21:02.683Z,1000.02
2023-05-06T04:22:02.724Z,1000.07
2023-05-06T04:23:02.685Z,1000.00
2023-05-06T04:24:02.688Z,999.99
2023-05-06T04:25:02.709Z,1000.02
2023-05-06T04:26:02.691Z,1000.04
2023-05-06T04:27:02.653Z,1000.09
2023-05-06T04:28:02.651Z,1000.01
2023-05-06T04:29:02.645Z,1000.06
2023-05-06T04:30:02.674Z,1000.06
2023-05-06T04:31:02.621Z,1000.10
2023-05-06T04:32:02.717Z,1000.01
2023-05-06T04:33:02.660Z,1000.02
2023-05-06T04:34:02.667Z,1000.05
2023-05-06T04:35:02.633Z,1000.04
2023-05-06T04:36:02.614Z,1000.04
2023-05-06T04:37:02.584Z,1000.03
2023-05-06T04:38:02.578Z,1000.06
2023-05-06T04:39:02.560Z,1000.04
2023-05-06T04:40:02.549Z,1000.01
2023-05-06T04:41:03.443Z,1000.02
2023-05-06T04:42:02.571Z,1000.02
2023-05-06T04:43:02.527Z,1000.10
2023-05-06T04:44:02.520Z,1000.06
2023-05-06T04:45:02.525Z,1000.10
2023-05-06T04:46:02.537Z,1000.05
2023-05-06T04:47:02.497Z,1000.05
2023-05-06T04:48:02.519Z,1000.06
2023-05-06T04:49:02.474Z,1000.07
2023-05-06T04:50:02.490Z,1000.06
2023-05-06T04:51:02.504Z,1000.05
2023-05-06T04:52:02.517Z,1000.10
2023-05-06T04:53:02.465Z,1000.12
2023-05-06T04:54:02.421Z,1000.15
2023-05-06T04:55:02.428Z,1000.09
2023-05-06T04:56:02.467Z,1000.17
2023-05-06T04:57:02.519Z,1000.15
2023-05-06T04:58:34.350Z,1000.17
2023-05-06T05:01:46.508Z,1000.21
2023-05-06T05:04:19.201Z,1000.22
2023-05-06T05:05:26.948Z,1000.22
2023-05-06T05:06:52.298Z,1000.29
2023-05-06T05:07:52.894Z,1000.34
2023-05-06T05:08:55.413Z,1000.30
2023-05-06T05:09:20.325Z,1000.33
2023-05-06T05:10:20.305Z,1000.32
2023-05-06T05:11:20.317Z,1000.36
2023-05-06T05:12:20.352Z,1000.32
2023-05-06T05:13:20.373Z,1000.38
2023-05-06T05:14:20.301Z,1000.48
2023-05-06T05:15:20.285Z,1000.41
2023-05-06T05:16:20.314Z,1000.41
2023-05-06T05:17:20.266Z,1000.40
2023-05-06T05:18:20.311Z,1000.44
2023-05-06T05:19:20.268Z,1000.42
2023-05-06T05:20:20.236Z,1000.48
2023-05-06T05:21:20.228Z,1000.39
2023-05-06T05:22:20.278Z,1000.42
2023-05-06T05:23:20.229Z,1000.53
2023-05-06T05:24:20.205Z,1000.45
2023-05-06T05:25:20.196Z,1000.49
2023-05-06T05:26:20.180Z,1000.54
2023-05-06T05:27:20.258Z,1000.55
2023-05-06T05:28:20.175Z,1000.48
2023-05-06T05:29:20.216Z,1000.47
2023-05-06T05:30:20.161Z,1000.47
2023-05-06T05:31:20.182Z,1000.45
2023-05-06T05:32:20.249Z,1000.46
2023-05-06T05:33:22.211Z,1000.47
2023-05-06T05:34:20.153Z,1000.47
2023-05-06T05:35:20.155Z,1000.45
2023-05-06T05:36:20.136Z,1000.43
2023-05-06T05:37:20.116Z,1000.45
2023-05-06T05:38:20.148Z,1000.42
2023-05-06T05:39:20.134Z,1000.42
2023-05-06T05:40:20.130Z,1000.45
2023-05-06T05:41:20.197Z,1000.42
2023-05-06T05:42:20.079Z,1000.42
2023-05-06T05:43:20.066Z,1000.42
2023-05-06T05:44:20.056Z,1000.47
2023-05-06T05:45:20.229Z,1000.48
2023-05-06T05:46:20.085Z,1000.47
2023-05-06T05:47:20.044Z,1000.41
2023-05-06T05:48:20.039Z,1000.43
2023-05-06T05:49:21.019Z,1000.44
2023-05-06T05:50:20.238Z,1000.41
2023-05-06T05:51:21.035Z,1000.38
2023-05-06T05:52:20.053Z,1000.35
2023-05-06T05:53:19.991Z,1000.37
2023-05-06T05:54:20.034Z,1000.35
2023-05-06T05:55:19.947Z,1000.35
2023-05-06T05:56:19.962Z,1000.31
2023-05-06T05:57:19.945Z,1000.31
2023-05-06T05:58:19.933Z,1000.34
2023-05-06T05:59:19.935Z,1000.33
2023-05-06T06:00:19.932Z,1000.41
2023-05-06T06:01:19.943Z,1000.33
2023-05-06T06:02:19.988Z,1000.37
2023-05-06T06:03:20.157Z,1000.33
2023-05-06T06:04:19.932Z,1000.36
2023-05-06T06:05:19.886Z,1000.35
2023-05-06T06:06:19.899Z,1000.36
2023-05-06T06:07:19.882Z,1000.34
2023-05-06T06:08:19.891Z,1000.31
2023-05-06T06:09:20.020Z,1000.34
2023-05-06T06:10:19.857Z,1000.31
2023-05-06T06:11:19.924Z,1000.32
2023-05-06T06:12:19.845Z,1000.39
2023-05-06T06:13:20.038Z,1000.28
2023-05-06T06:14:19.862Z,1000.26
2023-05-06T06:15:19.803Z,1000.24
2023-05-06T06:16:19.903Z,1000.25
2023-05-06T06:17:19.785Z,1000.23
2023-05-06T06:18:20.421Z,1000.21
2023-05-06T06:19:19.835Z,1000.22
2023-05-06T06:20:20.378Z,1000.21
2023-05-06T06:21:19.787Z,1000.22
2023-05-06T06:22:19.754Z,1000.21
2023-05-06T06:23:19.797Z,1000.29
2023-05-06T06:24:19.755Z,1000.28
2023-05-06T06:25:19.761Z,1000.31
2023-05-06T06:26:19.859Z,1000.25
2023-05-06T06:27:19.753Z,1000.28
2023-05-06T06:28:19.711Z,1000.38
2023-05-06T06:29:19.805Z,1000.30
2023-05-06T06:30:19.733Z,1000.30
2023-05-06T06:31:19.789Z,1000.30
2023-05-06T06:32:19.798Z,1000.34
2023-05-06T06:33:19.742Z,1000.20
2023-05-06T06:34:19.695Z,1000.07
2023-05-06T06:35:20.622Z,1000.02
2023-05-06T06:36:19.669Z,999.98
2023-05-06T06:37:19.673Z,999.97
2023-05-06T06:38:19.659Z,1000.07
2023-05-06T06:39:19.670Z,1000.05
2023-05-06T06:40:53.506Z,1000.02
2023-05-06T06:41:52.518Z,1000.09
2023-05-06T06:42:53.557Z,1000.06
2023-05-06T06:43:53.048Z,1000.10
2023-05-06T06:44:19.615Z,1000.12
2023-05-06T06:45:52.209Z,1000.11
2023-05-06T06:46:19.638Z,1000.08
2023-05-06T06:47:52.096Z,1000.06
2023-05-06T06:48:19.545Z,1000.10
2023-05-06T06:49:19.575Z,1000.09
2023-05-06T06:50:19.540Z,1000.07
2023-05-06T06:51:19.577Z,1000.03
2023-05-06T06:52:19.515Z,999.81
2023-05-06T06:53:19.562Z,999.80
2023-05-06T06:54:19.522Z,999.70
2023-05-06T06:55:19.535Z,999.62
2023-05-06T06:56:19.490Z,999.56
2023-05-06T06:57:19.503Z,999.49
2023-05-06T06:58:20.498Z,999.43
2023-05-06T06:59:19.519Z,999.44
2023-05-06T07:00:19.478Z,999.44
2023-05-06T07:01:19.502Z,999.35
2023-05-06T07:02:20.694Z,999.29
2023-05-06T07:03:19.698Z,999.30
2023-05-06T07:04:19.455Z,999.33
2023-05-06T07:05:19.440Z,999.23
2023-05-06T07:06:19.443Z,999.25
2023-05-06T07:07:19.480Z,999.19
2023-05-06T07:08:19.454Z,999.26
2023-05-06T07:09:19.401Z,999.18
2023-05-06T07:10:52.112Z,999.22
2023-05-06T07:11:20.138Z,999.15
2023-05-06T07:12:19.420Z,999.13
2023-05-06T07:13:19.501Z,999.10
2023-05-06T07:14:19.404Z,999.13
2023-05-06T07:15:19.387Z,999.15
2023-05-06T07:16:19.430Z,999.09
2023-05-06T07:17:19.451Z,999.07
2023-05-06T07:18:19.385Z,999.06
2023-05-06T07:19:19.356Z,999.13
2023-05-06T07:20:19.318Z,999.03
2023-05-06T07:21:19.346Z,999.18
2023-05-06T07:22:19.348Z,999.20
2023-05-06T07:23:19.309Z,999.23
2023-05-06T07:24:19.294Z,999.17
2023-05-06T07:25:19.298Z,999.24
2023-05-06T07:26:19.262Z,999.25
2023-05-06T07:27:19.268Z,999.33
2023-05-06T07:28:19.261Z,999.34
2023-05-06T07:29:19.348Z,999.37
2023-05-06T07:30:20.929Z,999.42
2023-05-06T07:31:19.308Z,999.45
2023-05-06T07:32:19.262Z,999.34
2023-05-06T07:33:19.249Z,999.41
2023-05-06T07:34:19.225Z,999.37
2023-05-06T07:35:19.219Z,999.22
2023-05-06T07:36:19.231Z,999.21
2023-05-06T07:37:19.223Z,999.26
2023-05-06T07:38:19.254Z,999.18
2023-05-06T07:39:19.178Z,999.16
2023-05-06T07:40:19.164Z,999.15
2023-05-06T07:41:19.215Z,999.08
2023-05-06T07:42:19.170Z,999.13
2023-05-06T07:43:19.162Z,999.11
2023-05-06T07:44:19.158Z,999.14
2023-05-06T07:45:19.136Z,999.16
2023-05-06T07:46:19.224Z,999.09
2023-05-06T07:47:19.172Z,999.10
2023-05-06T07:48:20.132Z,999.05
2023-05-06T07:49:20.108Z,999.06
2023-05-06T07:50:19.098Z,999.07
2023-05-06T07:51:19.100Z,999.03
2023-05-06T07:52:19.132Z,999.10
2023-05-06T07:53:19.092Z,999.13
2023-05-06T07:54:19.086Z,999.11
2023-05-06T07:55:19.097Z,999.21
2023-05-06T07:56:19.115Z,999.19
2023-05-06T07:57:19.065Z,999.22
2023-05-06T07:58:19.078Z,999.22
2023-05-06T07:59:19.036Z,999.24
2023-05-06T08:00:19.032Z,999.27
2023-05-06T08:01:19.154Z,999.23
2023-05-06T08:02:19.084Z,999.20
2023-05-06T08:03:19.186Z,999.22
2023-05-06T08:04:19.048Z,999.25
2023-05-06T08:05:19.030Z,999.19
2023-05-06T08:06:19.013Z,999.24
2023-05-06T08:07:19.042Z,999.20
2023-05-06T08:08:19.060Z,999.28
2023-05-06T08:09:22.876Z,999.33
2023-05-06T08:10:19.971Z,999.36
2023-05-06T08:11:19.508Z,999.37
2023-05-06T08:12:19.990Z,999.42
2023-05-06T08:13:19.626Z,999.49
2023-05-06T08:14:18.955Z,999.51
2023-05-06T08:15:18.953Z,999.49
2023-05-06T08:16:19.104Z,999.49
2023-05-06T08:17:19.021Z,999.50
2023-05-06T08:18:22.867Z,999.64
2023-05-06T08:19:19.917Z,999.63
2023-05-06T08:20:18.926Z,999.68
2023-05-06T08:21:18.888Z,999.60
2023-05-06T08:22:18.888Z,999.60
2023-05-06T08:23:18.898Z,999.60
2023-05-06T08:24:18.851Z,999.58
2023-05-06T08:25:18.856Z,999.53
2023-05-06T08:26:19.731Z,999.53
2023-05-06T08:27:18.845Z,999.55
2023-05-06T08:28:18.893Z,999.46
2023-05-06T08:29:18.839Z,999.57
2023-05-06T08:30:18.814Z,999.49
2023-05-06T08:31:18.883Z,999.48
2023-05-06T08:32:18.802Z,999.52
2023-05-06T08:33:18.801Z,999.55
2023-05-06T08:34:18.804Z,999.53
2023-05-06T08:35:18.813Z,999.49
2023-05-06T08:36:18.755Z,999.44
2023-05-06T08:37:18.834Z,999.54
2023-05-06T08:38:18.792Z,999.57
2023-05-06T08:39:18.796Z,999.41
2023-05-06T08:40:18.764Z,999.52
2023-05-06T08:41:18.745Z,999.52
2023-05-06T08:42:18.714Z,999.54
2023-05-06T08:43:18.748Z,999.49
2023-05-06T08:44:19.761Z,999.49
2023-05-06T08:45:18.743Z,999.48
2023-05-06T08:46:18.890Z,999.65
2023-05-06T08:47:18.692Z,999.52
2023-05-06T08:48:18.706Z,999.54
2023-05-06T08:49:18.781Z,999.52
2023-05-06T08:50:18.671Z,999.56
2023-05-06T08:51:18.673Z,999.59
2023-05-06T08:52:18.696Z,999.61
2023-05-06T08:53:18.682Z,999.59
2023-05-06T08:54:18.660Z,999.61
2023-05-06T08:55:18.657Z,999.59
2023-05-06T08:56:18.653Z,999.55
2023-05-06T08:57:18.638Z,999.55
2023-05-06T08:58:18.601Z,999.59
2023-05-06T08:59:18.641Z,999.48
2023-05-06T09:00:18.640Z,999.55
2023-05-06T09:01:18.646Z,999.52
2023-05-06T09:02:18.640Z,999.55
2023-05-06T09:03:18.867Z,999.57
2023-05-06T09:04:51.538Z,999.52
2023-05-06T09:05:18.544Z,999.61
2023-05-06T09:06:18.536Z,999.58
2023-05-06T09:07:18.641Z,999.55
2023-05-06T09:08:18.538Z,999.54
2023-05-06T09:09:18.536Z,999.54
2023-05-06T09:10:18.557Z,999.54
2023-05-06T09:11:18.511Z,999.58
2023-05-06T09:12:18.527Z,999.56
2023-05-06T09:13:18.675Z,999.65
2023-05-06T09:14:18.526Z,999.64
2023-05-06T09:15:18.499Z,999.61
2023-05-06T09:16:18.562Z,999.63
2023-05-06T09:17:19.179Z,999.66
2023-05-06T09:18:19.265Z,999.61
2023-05-06T09:19:18.464Z,999.57
2023-05-06T09:20:18.682Z,999.68
2023-05-06T09:21:18.447Z,999.64
2023-05-06T09:22:18.444Z,999.60
2023-05-06T09:23:18.483Z,999.62
2023-05-06T09:24:18.455Z,999.61
2023-05-06T09:25:18.404Z,999.59
2023-05-06T09:26:18.416Z,999.58
2023-05-06T09:27:18.429Z,999.57
2023-05-06T09:28:18.390Z,999.56
2023-05-06T09:29:18.403Z,999.58
2023-05-06T09:30:18.449Z,999.57
2023-05-06T09:31:18.395Z,999.60
2023-05-06T09:32:18.394Z,999.59
2023-05-06T09:33:18.377Z,999.56
2023-05-06T09:34:18.349Z,999.56
2023-05-06T09:35:18.365Z,999.57
2023-05-06T09:36:18.477Z,999.57
2023-05-06T09:37:18.357Z,999.52
2023-05-06T09:38:18.424Z,999.54
2023-05-06T09:39:18.326Z,999.55
2023-05-06T09:40:18.432Z,999.53
2023-05-06T09:41:18.314Z,999.51
2023-05-06T09:42:18.319Z,999.48
2023-05-06T09:43:18.297Z,999.57
2023-05-06T09:44:18.282Z,999.53
2023-05-06T09:45:18.278Z,999.49
2023-05-06T09:46:19.303Z,999.52
2023-05-06T09:47:18.307Z,999.56
2023-05-06T09:48:18.259Z,999.58
2023-05-06T09:49:18.245Z,999.44
2023-05-06T09:50:18.313Z,999.48
2023-05-06T09:51:18.212Z,999.48
2023-05-06T09:52:22.160Z,999.47
2023-05-06T09:53:18.249Z,999.50
2023-05-06T09:54:18.216Z,999.46
2023-05-06T09:55:18.210Z,999.46
2023-05-06T09:56:18.207Z,999.44
2023-05-06T09:57:18.190Z,999.48
2023-05-06T09:58:18.195Z,999.46
2023-05-06T09:59:18.209Z,999.46
2023-05-06T10:00:18.235Z,999.40
2023-05-06T10:01:32.460Z,999.43
2023-05-06T10:02:20.357Z,999.37
2023-05-06T10:03:50.880Z,999.43
2023-05-06T10:04:50.320Z,999.47
2023-05-06T10:05:50.787Z,999.47
2023-05-06T10:06:51.291Z,999.40
2023-05-06T10:07:50.876Z,999.40
2023-05-06T10:08:50.819Z,999.49
2023-05-06T10:09:50.061Z,999.43
2023-05-06T10:10:50.421Z,999.47
2023-05-06T10:11:50.988Z,999.55
2023-05-06T10:12:50.964Z,999.50
2023-05-06T10:13:18.152Z,999.53
2023-05-06T10:14:18.079Z,999.48
2023-05-06T10:15:18.145Z,999.52
2023-05-06T10:16:18.139Z,999.47
2023-05-06T10:17:19.094Z,999.48
2023-05-06T10:18:18.073Z,999.50
2023-05-06T10:19:18.082Z,999.49
2023-05-06T10:20:18.070Z,999.41
2023-05-06T10:21:18.955Z,999.42
2023-05-06T10:22:18.035Z,999.44
2023-05-06T10:23:18.104Z,999.40
2023-05-06T10:24:18.000Z,999.40
2023-05-06T10:25:18.008Z,999.37
2023-05-06T10:26:18.014Z,999.33
2023-05-06T10:27:17.964Z,999.33
2023-05-06T10:28:25.090Z,999.32
2023-05-06T10:29:18.962Z,999.38
2023-05-06T10:30:18.030Z,999.29
2023-05-06T10:31:17.992Z,999.28
2023-05-06T10:32:17.941Z,999.24
2023-05-06T10:33:17.935Z,999.31
2023-05-06T10:34:17.926Z,999.33
2023-05-06T10:35:17.924Z,999.28
2023-05-06T10:36:18.575Z,999.27
2023-05-06T10:37:17.918Z,999.28
2023-05-06T10:38:17.896Z,999.26
2023-05-06T10:39:17.970Z,999.32
2023-05-06T10:40:17.977Z,999.20
2023-05-06T10:41:17.872Z,999.18
2023-05-06T10:42:17.856Z,999.23
2023-05-06T10:43:17.847Z,999.18
2023-05-06T10:44:17.847Z,999.23
2023-05-06T10:45:17.866Z,999.20
2023-05-06T10:46:17.919Z,999.21
2023-05-06T10:47:17.822Z,999.18
2023-05-06T10:48:17.802Z,999.14
2023-05-06T10:49:17.795Z,999.14
2023-05-06T10:50:17.868Z,999.19
2023-05-06T10:51:17.880Z,999.13
2023-05-06T10:52:17.804Z,999.19
2023-05-06T10:53:17.829Z,999.17
2023-05-06T10:54:17.761Z,999.18
2023-05-06T10:55:19.017Z,999.17
2023-05-06T10:56:18.581Z,999.15
2023-05-06T10:57:17.746Z,999.12
2023-05-06T10:58:17.766Z,999.18
2023-05-06T10:59:17.717Z,999.19
2023-05-06T11:00:18.521Z,999.18
2023-05-06T11:01:17.824Z,999.19
2023-05-06T11:02:17.756Z,999.09
2023-05-06T11:03:17.714Z,999.10
2023-05-06T11:04:18.400Z,999.04
2023-05-06T11:05:18.528Z,998.97
2023-05-06T11:06:18.701Z,999.02
2023-05-06T11:07:17.718Z,999.01
2023-05-06T11:08:17.649Z,999.03
2023-05-06T11:09:17.700Z,999.01
2023-05-06T11:10:17.661Z,999.00
2023-05-06T11:11:17.731Z,998.99
2023-05-06T11:12:17.664Z,998.96
2023-05-06T11:13:17.721Z,999.00
2023-05-06T11:14:18.388Z,998.92
2023-05-06T11:15:17.644Z,998.92
2023-05-06T11:16:17.629Z,998.94
2023-05-06T11:17:17.602Z,998.94
2023-05-06T11:18:17.600Z,998.89
2023-05-06T11:19:17.592Z,998.86
2023-05-06T11:20:17.593Z,998.87
2023-05-06T11:21:17.574Z,998.87
2023-05-06T11:22:17.592Z,998.90
2023-05-06T11:23:17.585Z,998.86
2023-05-06T11:24:50.000Z,998.85
2023-05-06T11:25:17.600Z,998.89
2023-05-06T11:26:18.401Z,998.92
2023-05-06T11:27:17.626Z,998.92
2023-05-06T11:28:17.579Z,998.90
2023-05-06T11:29:18.430Z,998.94
2023-05-06T11:30:17.508Z,998.94
2023-05-06T11:31:17.554Z,998.92
2023-05-06T11:32:17.512Z,998.99
2023-05-06T11:33:17.495Z,998.93
2023-05-06T11:34:17.485Z,998.91
2023-05-06T11:35:17.476Z,998.95
2023-05-06T11:36:17.506Z,998.95
2023-05-06T11:37:18.049Z,999.05
2023-05-06T11:38:17.472Z,999.02
2023-05-06T11:39:18.110Z,999.05
2023-05-06T11:40:18.399Z,999.11
2023-05-06T11:41:17.446Z,999.11
2023-05-06T11:42:19.552Z,999.04
2023-05-06T11:43:17.476Z,999.06
2023-05-06T11:44:17.976Z,999.06
2023-05-06T11:45:17.476Z,999.14
2023-05-06T11:46:17.457Z,999.10
2023-05-06T11:47:17.540Z,999.12
2023-05-06T11:48:17.421Z,999.11
2023-05-06T11:49:17.406Z,999.08
2023-05-06T11:50:17.391Z,999.09
2023-05-06T11:51:17.395Z,999.12
2023-05-06T11:52:17.384Z,999.03
2023-05-06T11:53:17.327Z,999.01
2023-05-06T11:54:17.344Z,999.04
2023-05-06T11:55:49.381Z,998.96
2023-05-06T11:56:17.336Z,998.92
2023-05-06T11:57:17.321Z,998.90
2023-05-06T11:58:18.031Z,998.94
2023-05-06T11:59:18.160Z,998.94
2023-05-06T12:00:17.290Z,999.00
2023-05-06T12:01:17.651Z,998.96
2023-05-06T12:02:18.322Z,998.96
2023-05-06T12:03:17.369Z,998.96
2023-05-06T12:04:17.303Z,998.90
2023-05-06T12:05:17.247Z,998.94
2023-05-06T12:06:17.303Z,998.89
2023-05-06T12:07:18.140Z,998.85
2023-05-06T12:08:26.874Z,998.82
2023-05-06T12:09:19.247Z,998.78
2023-05-06T12:10:17.287Z,998.76
2023-05-06T12:11:17.225Z,998.74
2023-05-06T12:12:17.273Z,998.74
2023-05-06T12:13:17.225Z,998.74
2023-05-06T12:14:17.188Z,998.74
2023-05-06T12:15:17.354Z,998.57
2023-05-06T12:16:17.256Z,998.65
2023-05-06T12:17:17.209Z,998.65
2023-05-06T12:18:17.181Z,998.69
2023-05-06T12:19:17.168Z,998.67
2023-05-06T12:20:17.200Z,998.66
2023-05-06T12:21:17.151Z,998.68
2023-05-06T12:22:17.184Z,998.68
2023-05-06T12:23:17.152Z,998.70
2023-05-06T12:24:17.174Z,998.71
2023-05-06T12:25:18.134Z,998.74
2023-05-06T12:26:17.109Z,998.71
2023-05-06T12:27:17.124Z,998.67
2023-05-06T12:28:17.108Z,998.73
2023-05-06T12:29:17.123Z,998.70
2023-05-06T12:30:17.090Z,998.63
2023-05-06T12:31:17.221Z,998.66
2023-05-06T12:32:17.058Z,998.67
2023-05-06T12:33:17.063Z,998.59
2023-05-06T12:34:18.091Z,998.61
2023-05-06T12:35:17.048Z,998.64
2023-05-06T12:36:17.066Z,998.55
2023-05-06T12:37:17.044Z,998.59
2023-05-06T12:38:17.052Z,998.50
2023-05-06T12:39:17.047Z,998.58
2023-05-06T12:40:17.017Z,998.61
2023-05-06T12:41:50.508Z,998.58
2023-05-06T12:42:17.023Z,998.61